createdAt,value
2024-03-01T00:01:32.820Z,82.44
2024-03-01T00:03:59.781Z,81.87
2024-03-01T00:06:26.452Z,81.95
2024-03-01T00:08:54.374Z,82.13
2024-03-01T00:11:21.044Z,82.42
2024-03-01T00:13:47.740Z,83.11
2024-03-01T00:16:14.464Z,82.19
2024-03-01T00:18:41.283Z,83.04
2024-03-01T00:21:07.975Z,83.86
2024-03-01T00:23:35.550Z,84.30
2024-03-01T00:26:02.401Z,83.93
2024-03-01T00:28:29.169Z,84.56
2024-03-01T00:30:55.935Z,84.28
2024-03-01T00:33:22.706Z,85.72
2024-03-01T00:35:49.599Z,85.66
2024-03-01T00:38:16.571Z,85.94
2024-03-01T00:40:43.392Z,85.78
2024-03-01T00:43:11.777Z,86.08
2024-03-01T00:45:38.855Z,86.38
2024-03-01T00:48:10.281Z,86.63
2024-03-01T00:50:37.498Z,85.27
2024-03-01T00:53:07.680Z,86.33
2024-03-01T00:55:34.959Z,85.95
2024-03-01T00:58:02.280Z,86.16
2024-03-01T01:00:29.704Z,85.40
2024-03-01T01:02:56.442Z,85.19
2024-03-01T01:05:25.657Z,86.28
2024-03-01T01:07:52.385Z,85.64
2024-03-01T01:10:19.297Z,84.99
2024-03-01T01:12:46.067Z,85.15
2024-03-01T01:15:14.317Z,84.79
2024-03-01T01:17:41.621Z,85.40
2024-03-01T01:20:08.903Z,85.68
2024-03-01T01:22:35.937Z,86.11
2024-03-01T01:25:02.957Z,85.48
2024-03-01T01:27:29.711Z,86.52
2024-03-01T01:29:56.414Z,86.81
2024-03-01T01:32:23.090Z,86.52
2024-03-01T01:34:49.822Z,86.61
2024-03-01T01:37:17.701Z,86.06
2024-03-01T01:39:44.377Z,86.70
2024-03-01T01:42:11.742Z,86.18
2024-03-01T01:44:38.447Z,86.25
2024-03-01T01:47:05.333Z,86.49
2024-03-01T01:49:32.425Z,86.79
2024-03-01T01:52:00.388Z,86.80
2024-03-01T01:54:27.963Z,86.66
2024-03-01T01:56:55.023Z,88.27
2024-03-01T01:59:22.121Z,87.86
2024-03-01T02:01:48.892Z,87.68
2024-03-01T02:04:15.673Z,88.46
2024-03-01T02:06:45.797Z,88.21
2024-03-01T02:09:19.586Z,88.01
2024-03-01T02:11:46.477Z,87.65
2024-03-01T02:14:13.176Z,87.87
2024-03-01T02:16:39.992Z,88.14
2024-03-01T02:19:16.519Z,87.99
2024-03-01T02:21:54.697Z,87.38
2024-03-01T02:24:21.515Z,87.08
2024-03-01T02:26:48.231Z,87.25
2024-03-01T02:29:14.905Z,87.12
2024-03-01T02:31:41.625Z,86.99
2024-03-01T02:34:08.400Z,87.70
2024-03-01T02:36:35.091Z,87.98
2024-03-01T02:39:01.734Z,88.01
2024-03-01T02:41:28.405Z,88.24
2024-03-01T02:43:55.124Z,88.02
2024-03-01T02:46:23.698Z,88.36
2024-03-01T02:48:50.486Z,88.73
2024-03-01T02:51:17.251Z,88.05
2024-03-01T02:53:43.954Z,87.94
2024-03-01T02:56:10.615Z,88.02
2024-03-01T02:58:37.593Z,88.48
2024-03-01T03:01:05.439Z,88.21
2024-03-01T03:03:32.556Z,88.08
2024-03-01T03:05:59.177Z,87.88
2024-03-01T03:08:25.833Z,87.69
2024-03-01T03:10:52.538Z,88.53
2024-03-01T03:13:19.296Z,88.23
2024-03-01T03:15:46.184Z,88.18
2024-03-01T03:18:12.874Z,87.69
2024-03-01T03:20:39.554Z,88.23
2024-03-01T03:23:06.268Z,88.46
2024-03-01T03:25:33.180Z,88.81
2024-03-01T03:27:59.985Z,89.36
2024-03-01T03:30:26.633Z,88.22
2024-03-01T03:32:53.378Z,88.39
2024-03-01T03:35:20.056Z,87.82
2024-03-01T03:37:46.837Z,88.52
2024-03-01T03:40:16.633Z,88.37
2024-03-01T03:42:44.270Z,88.77
2024-03-01T03:45:11.766Z,89.15
2024-03-01T03:47:38.609Z,89.17
2024-03-01T03:50:08.538Z,89.23
2024-03-01T03:52:36.438Z,89.04
2024-03-01T03:55:07.570Z,89.03
2024-03-01T03:57:34.916Z,89.42
2024-03-01T04:00:09.504Z,88.60
2024-03-01T04:02:37.593Z,88.82
2024-03-01T04:05:05.167Z,88.89
2024-03-01T04:07:32.054Z,88.46
2024-03-01T04:09:58.861Z,88.33
2024-03-01T04:12:25.547Z,89.24
2024-03-01T04:14:52.335Z,89.39
2024-03-01T04:17:19.161Z,89.13
2024-03-01T04:19:45.817Z,88.82
2024-03-01T04:22:14.532Z,88.73
2024-03-01T04:24:43.227Z,88.88
2024-03-01T04:27:09.918Z,88.69
2024-03-01T04:29:36.559Z,89.00
2024-03-01T04:32:04.862Z,89.76
2024-03-01T04:34:32.999Z,88.90
2024-03-01T04:37:00.192Z,89.15
2024-03-01T04:39:26.931Z,88.75
2024-03-01T04:41:54.028Z,88.40
2024-03-01T04:44:20.675Z,88.58
2024-03-01T04:46:47.731Z,88.33
2024-03-01T04:49:14.386Z,89.04
2024-03-01T04:51:41.762Z,89.22
2024-03-01T04:54:09.023Z,88.83
2024-03-01T04:56:35.837Z,89.32
2024-03-01T04:59:02.632Z,89.55
2024-03-01T05:01:29.362Z,89.81
2024-03-01T05:03:56.181Z,89.63
2024-03-01T05:06:22.870Z,89.47
2024-03-01T05:08:49.536Z,89.05
2024-03-01T05:11:18.605Z,88.60
2024-03-01T05:13:45.389Z,88.45
2024-03-01T05:16:12.106Z,88.81
2024-03-01T05:18:38.818Z,88.55
2024-03-01T05:21:05.857Z,89.21
2024-03-01T05:23:34.798Z,89.00
2024-03-01T05:26:01.674Z,88.79
2024-03-01T05:28:28.375Z,88.59
2024-03-01T05:30:58.076Z,88.52
2024-03-01T05:33:30.517Z,89.44
2024-03-01T05:35:57.231Z,89.36
2024-03-01T05:38:23.906Z,89.89
2024-03-01T05:40:52.644Z,89.50
2024-03-01T05:43:23.971Z,89.08
2024-03-01T05:45:52.508Z,89.91
2024-03-01T05:48:19.520Z,89.62
2024-03-01T05:50:46.189Z,89.01
2024-03-01T05:53:16.730Z,89.07
2024-03-01T05:55:44.324Z,89.14
2024-03-01T05:58:12.162Z,88.55
2024-03-01T06:00:42.536Z,88.65
2024-03-01T06:03:10.301Z,88.99
2024-03-01T06:05:37.240Z,88.79
2024-03-01T06:08:04.418Z,89.22
2024-03-01T06:10:31.202Z,89.15
2024-03-01T06:12:59.609Z,89.18
2024-03-01T06:15:27.584Z,89.50
2024-03-01T06:17:54.464Z,88.87
2024-03-01T06:20:21.318Z,88.78
2024-03-01T06:22:48.082Z,88.67
2024-03-01T06:25:14.971Z,89.28
2024-03-01T06:27:41.670Z,89.07
2024-03-01T06:30:08.694Z,88.94
2024-03-01T06:32:36.360Z,88.91
2024-03-01T06:35:05.369Z,89.11
2024-03-01T06:37:32.446Z,89.17
2024-03-01T06:39:59.394Z,88.75
2024-03-01T06:42:26.299Z,88.83
2024-03-01T06:44:52.923Z,89.06
2024-03-01T06:47:22.119Z,88.63
2024-03-01T06:49:49.603Z,88.43
2024-03-01T06:52:16.970Z,88.92
2024-03-01T06:54:46.605Z,88.83
2024-03-01T06:57:13.368Z,88.60
2024-03-01T06:59:40.458Z,88.83
2024-03-01T07:02:07.457Z,88.92
2024-03-01T07:04:34.494Z,88.67
2024-03-01T07:07:01.329Z,88.43
2024-03-01T07:09:28.149Z,88.07
2024-03-01T07:11:54.793Z,88.21
2024-03-01T07:14:21.538Z,88.54
2024-03-01T07:16:48.228Z,88.71
2024-03-01T07:19:15.033Z,88.02
2024-03-01T07:21:42.140Z,87.66
2024-03-01T07:24:09.068Z,87.73
2024-03-01T07:26:35.868Z,87.35
2024-03-01T07:29:03.602Z,87.81
2024-03-01T07:31:30.530Z,88.02
2024-03-01T07:33:57.444Z,88.04
2024-03-01T07:36:24.228Z,87.93
2024-03-01T07:38:51.004Z,88.68
2024-03-01T07:41:19.855Z,87.74
2024-03-01T07:43:47.688Z,87.51
2024-03-01T07:46:16.032Z,87.42
2024-03-01T07:48:46.862Z,88.05
2024-03-01T07:51:14.529Z,87.07
2024-03-01T07:53:44.633Z,87.66
2024-03-01T07:56:11.949Z,87.51
2024-03-01T07:58:39.054Z,86.41
2024-03-01T08:01:06.524Z,87.48
2024-03-01T08:03:36.738Z,86.49
2024-03-01T08:06:03.840Z,87.39
2024-03-01T08:08:36.676Z,86.86
2024-03-01T08:11:08.880Z,87.63
2024-03-01T08:13:36.092Z,86.55
2024-03-01T08:16:07.892Z,86.67
2024-03-01T08:18:38.891Z,86.60
2024-03-01T08:21:08.935Z,85.69
2024-03-01T08:23:40.294Z,86.74
2024-03-01T08:26:16.301Z,85.76
2024-03-01T08:28:45.859Z,86.28
2024-03-01T08:31:28.262Z,85.34
2024-03-01T08:34:19.901Z,86.09
2024-03-01T08:36:46.970Z,84.82
2024-03-01T08:39:18.797Z,84.86
2024-03-01T08:41:47.590Z,85.14
2024-03-01T08:44:55.241Z,83.70
2024-03-01T08:47:21.985Z,83.80
2024-03-01T08:49:54.697Z,82.51
2024-03-01T08:52:29.638Z,81.37
2024-03-01T08:54:57.566Z,83.30
2024-03-01T08:57:27.789Z,81.22
2024-03-01T08:59:54.478Z,79.35
2024-03-01T09:02:48.057Z,79.42
2024-03-01T09:05:16.803Z,79.32
2024-03-01T09:07:44.665Z,77.88
2024-03-01T09:10:36.805Z,76.52
2024-03-01T09:13:05.906Z,77.60
2024-03-01T09:15:40.622Z,77.11
2024-03-01T09:18:27.695Z,76.95
2024-03-01T09:20:57.177Z,76.80
2024-03-01T09:23:23.998Z,74.71
2024-03-01T09:25:50.666Z,73.97
2024-03-01T09:28:22.363Z,74.36
2024-03-01T09:30:54.398Z,74.16
2024-03-01T09:33:23.638Z,72.10
2024-03-01T09:35:53.793Z,72.54
2024-03-01T09:38:26.543Z,72.54
2024-03-01T09:41:17.336Z,71.72
2024-03-01T09:44:12.816Z,73.07
2024-03-01T09:47:05.976Z,71.39
2024-03-01T09:50:01.330Z,69.24
2024-03-01T09:52:49.678Z,70.43
2024-03-01T09:55:27.197Z,69.84
2024-03-01T09:58:02.670Z,71.02
2024-03-01T10:00:34.623Z,69.42
2024-03-01T10:03:10.075Z,69.47
2024-03-01T10:05:41.702Z,69.24
2024-03-01T10:08:18.577Z,67.39
2024-03-01T10:11:18.685Z,68.08
2024-03-01T10:14:28.028Z,68.23
2024-03-01T10:17:02.149Z,67.55
2024-03-01T10:19:51.495Z,67.86
2024-03-01T10:22:36.051Z,69.36
2024-03-01T10:25:20.914Z,69.85
2024-03-01T10:27:53.413Z,69.42
2024-03-01T10:30:31.403Z,67.94
2024-03-01T10:33:10.125Z,67.09
2024-03-01T10:35:54.814Z,68.05
2024-03-01T10:38:54.246Z,67.52
2024-03-01T10:41:59.871Z,67.69
2024-03-01T10:44:38.610Z,67.51
2024-03-01T10:47:19.488Z,66.92
2024-03-01T10:50:07.245Z,67.96
2024-03-01T10:52:51.650Z,68.30
2024-03-01T10:55:23.322Z,67.12
2024-03-01T10:57:59.305Z,67.71
2024-03-01T11:00:29.804Z,68.69
2024-03-01T11:03:25.966Z,67.35
2024-03-01T11:06:08.091Z,67.72
2024-03-01T11:08:43.511Z,67.77
2024-03-01T11:11:25.422Z,67.11
2024-03-01T11:13:56.388Z,69.28
2024-03-01T11:16:33.521Z,66.95
2024-03-01T11:19:05.835Z,67.59
2024-03-01T11:21:36.881Z,66.45
2024-03-01T11:24:05.575Z,66.73
2024-03-01T11:26:43.159Z,69.13
2024-03-01T11:29:20.729Z,67.06
2024-03-01T11:31:52.466Z,68.51
2024-03-01T11:34:36.344Z,69.53
2024-03-01T11:37:37.874Z,68.17
2024-03-01T11:40:39.580Z,68.15
2024-03-01T11:43:27.336Z,68.05
2024-03-01T11:46:17.119Z,68.73
2024-03-01T11:49:08.146Z,69.29
2024-03-01T11:52:04.718Z,69.25
2024-03-01T11:54:37.058Z,68.47
2024-03-01T11:57:31.338Z,68.21
2024-03-01T12:00:10.091Z,69.42
2024-03-01T12:02:50.993Z,68.30
2024-03-01T12:05:27.781Z,67.67
2024-03-01T12:08:35.572Z,68.66
2024-03-01T12:11:24.288Z,69.61
2024-03-01T12:14:00.591Z,68.59
2024-03-01T12:16:48.845Z,66.97
2024-03-01T12:19:28.663Z,66.23
2024-03-01T12:21:55.269Z,66.32
2024-03-01T12:24:28.132Z,67.76
2024-03-01T12:27:15.781Z,67.61
2024-03-01T12:30:01.953Z,69.33
2024-03-01T12:32:46.274Z,69.43
2024-03-01T12:35:31.012Z,69.17
2024-03-01T12:38:25.097Z,69.03
2024-03-01T12:41:28.723Z,68.44
2024-03-01T12:43:58.403Z,68.88
2024-03-01T12:46:43.461Z,69.37
2024-03-01T12:49:19.409Z,68.05
2024-03-01T12:52:30.863Z,67.18
2024-03-01T12:55:07.085Z,69.49
2024-03-01T12:57:55.694Z,68.34
2024-03-01T13:00:30.341Z,69.33
2024-03-01T13:03:09.816Z,68.25
2024-03-01T13:05:42.525Z,68.48
2024-03-01T13:08:27.990Z,67.81
2024-03-01T13:10:58.496Z,67.39
2024-03-01T13:13:30.580Z,68.16
2024-03-01T13:16:09.137Z,67.64
2024-03-01T13:18:59.115Z,68.49
2024-03-01T13:21:53.463Z,68.30
2024-03-01T13:24:26.015Z,67.64
2024-03-01T13:27:14.299Z,68.67
2024-03-01T13:29:44.565Z,68.93
2024-03-01T13:32:22.766Z,68.09
2024-03-01T13:35:02.288Z,67.99
2024-03-01T13:37:37.521Z,67.72
2024-03-01T13:40:16.131Z,67.41
2024-03-01T13:42:53.519Z,68.67
2024-03-01T13:45:28.415Z,67.69
2024-03-01T13:48:24.969Z,66.98
2024-03-01T13:50:51.962Z,67.47
2024-03-01T13:53:19.031Z,68.11
2024-03-01T13:55:49.051Z,67.38
2024-03-01T13:58:16.879Z,67.54
2024-03-01T14:00:57.915Z,68.03
2024-03-01T14:03:26.424Z,69.34
2024-03-01T14:05:57.232Z,67.92
2024-03-01T14:08:24.125Z,69.18
2024-03-01T14:10:53.763Z,69.54
2024-03-01T14:13:27.597Z,70.44
2024-03-01T14:15:56.540Z,68.67
2024-03-01T14:18:24.421Z,69.13
2024-03-01T14:20:51.454Z,68.98
2024-03-01T14:23:18.203Z,69.23
2024-03-01T14:25:45.456Z,69.41
2024-03-01T14:28:15.695Z,71.22
2024-03-01T14:30:45.778Z,70.11
2024-03-01T14:33:14.687Z,70.36
2024-03-01T14:35:42.251Z,70.41
2024-03-01T14:38:17.509Z,69.30
2024-03-01T14:40:57.914Z,71.01
2024-03-01T14:43:25.988Z,71.01
2024-03-01T14:45:56.263Z,70.89
2024-03-01T14:48:30.804Z,71.06
2024-03-01T14:50:58.943Z,72.17
2024-03-01T14:53:38.781Z,72.09
2024-03-01T14:56:09.035Z,72.24
2024-03-01T14:58:37.299Z,71.81
2024-03-01T15:01:08.425Z,70.98
2024-03-01T15:03:36.677Z,71.50
2024-03-01T15:06:08.800Z,71.49
2024-03-01T15:08:35.841Z,72.40
2024-03-01T15:11:10.586Z,72.17
2024-03-01T15:13:38.598Z,72.86
2024-03-01T15:16:06.761Z,72.03
2024-03-01T15:18:42.021Z,72.58
2024-03-01T15:21:12.879Z,73.75
2024-03-01T15:23:44.042Z,73.98
2024-03-01T15:26:11.402Z,73.79
2024-03-01T15:28:39.681Z,74.28
2024-03-01T15:31:07.602Z,73.56
2024-03-01T15:33:34.621Z,74.08
2024-03-01T15:36:01.561Z,73.78
2024-03-01T15:38:28.383Z,74.52
2024-03-01T15:40:57.687Z,75.39
2024-03-01T15:43:24.961Z,75.41
2024-03-01T15:45:51.981Z,75.22
2024-03-01T15:48:19.092Z,75.36
2024-03-01T15:50:45.908Z,75.22
2024-03-01T15:53:14.021Z,74.75
2024-03-01T15:55:48.068Z,76.07
2024-03-01T15:58:15.656Z,76.02
2024-03-01T16:00:42.984Z,75.82
2024-03-01T16:03:09.790Z,76.43
2024-03-01T16:05:41.234Z,76.50
2024-03-01T16:08:18.459Z,76.93
2024-03-01T16:10:53.374Z,76.94
2024-03-01T16:13:20.784Z,77.08
2024-03-01T16:15:58.033Z,76.80
2024-03-01T16:18:27.374Z,77.29
2024-03-01T16:20:56.071Z,77.60
2024-03-01T16:23:26.634Z,77.81
2024-03-01T16:25:53.924Z,78.10
2024-03-01T16:28:26.581Z,78.18
2024-03-01T16:31:07.188Z,78.20
2024-03-01T16:33:34.735Z,78.54
2024-03-01T16:36:05.888Z,79.17
2024-03-01T16:38:40.018Z,79.04
2024-03-01T16:41:20.411Z,79.27
2024-03-01T16:43:47.384Z,79.06
2024-03-01T16:46:34.724Z,79.66
2024-03-01T16:49:04.484Z,80.04
2024-03-01T16:51:42.841Z,79.95
2024-03-01T16:54:28.670Z,80.39
2024-03-01T16:56:59.684Z,80.69
2024-03-01T16:59:26.619Z,80.20
2024-03-01T17:01:56.518Z,80.78
2024-03-01T17:04:26.841Z,80.43
2024-03-01T17:06:53.607Z,81.10
2024-03-01T17:09:22.009Z,81.35
2024-03-01T17:11:51.107Z,81.69
2024-03-01T17:14:18.472Z,81.65
2024-03-01T17:16:46.174Z,81.86
2024-03-01T17:19:32.750Z,81.98
2024-03-01T17:22:03.673Z,82.08
2024-03-01T17:24:31.855Z,82.11
2024-03-01T17:26:58.842Z,82.54
2024-03-01T17:29:26.506Z,82.45
2024-03-01T17:31:53.194Z,82.73
2024-03-01T17:34:20.013Z,82.89
2024-03-01T17:36:46.711Z,83.20
2024-03-01T17:39:13.849Z,82.49
2024-03-01T17:41:40.980Z,82.99
2024-03-01T17:44:07.679Z,83.17
2024-03-01T17:46:34.610Z,82.99
2024-03-01T17:49:01.859Z,83.42
2024-03-01T17:51:29.404Z,83.76
2024-03-01T17:53:56.335Z,83.46
2024-03-01T17:56:22.991Z,83.88
2024-03-01T17:58:49.784Z,83.49
2024-03-01T18:01:16.640Z,83.83
2024-03-01T18:03:43.381Z,83.89
2024-03-01T18:06:10.220Z,84.35
2024-03-01T18:08:36.899Z,83.72
2024-03-01T18:11:03.799Z,84.25
2024-03-01T18:13:30.878Z,84.57
2024-03-01T18:15:58.257Z,84.67
2024-03-01T18:18:25.398Z,84.53
2024-03-01T18:20:52.312Z,84.48
2024-03-01T18:23:19.051Z,84.94
2024-03-01T18:25:45.774Z,84.50
2024-03-01T18:28:12.636Z,84.87
2024-03-01T18:30:39.420Z,84.17
2024-03-01T18:33:06.667Z,84.75
2024-03-01T18:35:33.459Z,84.96
2024-03-01T18:38:00.129Z,84.73
2024-03-01T18:40:26.841Z,84.89
2024-03-01T18:42:54.488Z,84.47
2024-03-01T18:45:21.400Z,85.44
2024-03-01T18:47:48.356Z,85.31
2024-03-01T18:50:15.101Z,85.14
2024-03-01T18:52:41.938Z,85.51
2024-03-01T18:55:08.927Z,85.49
2024-03-01T18:57:37.827Z,85.31
2024-03-01T19:00:05.752Z,85.90
2024-03-01T19:02:32.682Z,85.45
2024-03-01T19:04:59.887Z,85.60
2024-03-01T19:07:28.023Z,85.53
2024-03-01T19:09:54.753Z,87.76
2024-03-01T19:12:23.880Z,85.05
2024-03-01T19:14:51.074Z,84.25
2024-03-01T19:17:17.846Z,84.12
2024-03-01T19:19:44.646Z,84.65
2024-03-01T19:22:11.416Z,84.97
2024-03-01T19:24:38.275Z,85.22
2024-03-01T19:27:05.152Z,84.94
2024-03-01T19:29:31.855Z,85.26
2024-03-01T19:31:59.124Z,84.59
2024-03-01T19:34:25.929Z,85.10
2024-03-01T19:36:52.714Z,84.73
2024-03-01T19:39:22.329Z,85.18
2024-03-01T19:41:54.233Z,84.95
2024-03-01T19:44:21.448Z,85.31
2024-03-01T19:46:48.397Z,85.40
2024-03-01T19:49:15.320Z,85.46
2024-03-01T19:51:42.062Z,84.82
2024-03-01T19:54:08.862Z,85.46
2024-03-01T19:56:35.571Z,85.40
2024-03-01T19:59:03.812Z,85.02
2024-03-01T20:01:31.749Z,85.20
2024-03-01T20:03:59.594Z,85.97
2024-03-01T20:06:28.659Z,85.50
2024-03-01T20:08:55.938Z,85.88
2024-03-01T20:11:23.436Z,85.44
2024-03-01T20:13:50.314Z,85.71
2024-03-01T20:16:17.038Z,86.55
2024-03-01T20:18:43.813Z,86.01
2024-03-01T20:21:10.515Z,86.20
2024-03-01T20:23:45.523Z,86.24
2024-03-01T20:26:16.661Z,86.03
2024-03-01T20:28:43.746Z,86.03
2024-03-01T20:31:12.094Z,86.66
2024-03-01T20:33:39.181Z,86.63
2024-03-01T20:36:06.107Z,86.01
2024-03-01T20:38:35.230Z,85.58
2024-03-01T20:41:01.954Z,85.80
2024-03-01T20:43:28.677Z,86.20
2024-03-01T20:45:55.466Z,85.88
2024-03-01T20:48:22.564Z,86.13
2024-03-01T20:50:50.015Z,86.12
2024-03-01T20:53:16.918Z,85.96
2024-03-01T20:55:43.778Z,86.84
2024-03-01T20:58:10.514Z,86.08
2024-03-01T21:00:37.311Z,85.75
2024-03-01T21:03:04.933Z,85.86
2024-03-01T21:05:31.654Z,86.47
2024-03-01T21:08:00.383Z,86.12
2024-03-01T21:10:28.773Z,86.40
2024-03-01T21:12:55.640Z,85.59
2024-03-01T21:15:22.909Z,85.75
2024-03-01T21:17:51.279Z,86.68
2024-03-01T21:20:20.711Z,86.08
2024-03-01T21:22:53.586Z,86.10
2024-03-01T21:25:22.685Z,86.33
2024-03-01T21:27:50.967Z,86.53
2024-03-01T21:30:18.675Z,86.58
2024-03-01T21:32:45.452Z,86.63
2024-03-01T21:35:12.214Z,86.72
2024-03-01T21:37:39.132Z,86.70
2024-03-01T21:40:27.477Z,86.61
2024-03-01T21:42:54.178Z,86.03
2024-03-01T21:45:21.063Z,86.25
2024-03-01T21:47:47.911Z,86.34
2024-03-01T21:50:14.952Z,86.60
2024-03-01T21:52:42.179Z,86.28
2024-03-01T21:55:09.583Z,86.17
2024-03-01T21:57:36.842Z,86.43
2024-03-01T22:00:05.189Z,85.94
2024-03-01T22:02:31.860Z,86.74
2024-03-01T22:04:59.670Z,86.63
2024-03-01T22:07:27.088Z,86.36
2024-03-01T22:09:54.277Z,86.31
2024-03-01T22:12:22.941Z,86.56
2024-03-01T22:14:49.749Z,86.53
2024-03-01T22:17:16.488Z,86.25
2024-03-01T22:19:43.231Z,86.46
2024-03-01T22:22:10.490Z,86.04
2024-03-01T22:24:38.562Z,86.44
2024-03-01T22:27:05.585Z,86.45
2024-03-01T22:29:32.267Z,86.60
2024-03-01T22:31:59.083Z,86.85
2024-03-01T22:34:25.831Z,86.68
2024-03-01T22:36:52.857Z,87.13
2024-03-01T22:39:19.898Z,87.37
2024-03-01T22:41:46.614Z,86.95
2024-03-01T22:44:14.052Z,86.74
2024-03-01T22:46:40.715Z,86.35
2024-03-01T22:49:10.101Z,87.03
2024-03-01T22:51:36.979Z,86.81
2024-03-01T22:54:04.766Z,86.50
2024-03-01T22:56:33.911Z,86.99
2024-03-01T22:59:01.349Z,86.81
2024-03-01T23:01:30.086Z,86.67
2024-03-01T23:03:58.255Z,86.79
2024-03-01T23:06:27.580Z,86.75
2024-03-01T23:08:59.996Z,86.60
2024-03-01T23:11:26.568Z,86.80
2024-03-01T23:13:54.032Z,86.65
2024-03-01T23:16:20.699Z,86.78
2024-03-01T23:18:48.129Z,86.33
2024-03-01T23:21:14.966Z,86.02
2024-03-01T23:23:42.758Z,86.75
2024-03-01T23:26:09.527Z,86.43
2024-03-01T23:28:36.278Z,86.54
2024-03-01T23:31:04.123Z,86.36
2024-03-01T23:33:31.002Z,86.42
2024-03-01T23:36:00.114Z,86.48
2024-03-01T23:38:27.020Z,86.64
2024-03-01T23:40:55.415Z,86.89
2024-03-01T23:43:25.978Z,86.45
2024-03-01T23:45:53.053Z,86.81
2024-03-01T23:48:21.396Z,86.70
2024-03-01T23:50:48.239Z,86.86
2024-03-01T23:53:18.062Z,86.35
2024-03-01T23:55:45.867Z,86.63
2024-03-01T23:58:12.871Z,86.76
